Shreveport Regional Airport

Airport
ICAO code: 
KSHV
Summary
ICAO Region: 
NAM
Territory: 
Location: 
Shreveport, Louisiana,
Coordinates: 
Aerial View: 
32° 26' 40.517" N, 93° 49' 31.979" W
Metar
Observation
KSHV 040556Z 21007KT 10SM BKN120 20/17 A3002 RMK AO2 RAE30 SLP163 P0000 60000 T02000172 10200 20178 402330122 53002
Station
Shreveport, Shreveport Regional Airport
Date/Time
2021-12-04 05:56:00
Wind direction
210°
Wind speed
07 kts
Lowest cloud amount
broken clouds
Temperature
20°C
Dew point
17.2°C
Humidity
83%
Weather condition
n/a

Description

Shreveport Regional Airport is a public use airport located 7 km southwest of the central business district of Shreveport, Louisiana.

Climatology

Humid “subtropical” climate (Köppen climate classification Cfa) - characterized by hot, humid summers and cool winters. Significant amounts of precipitation occur in all seasons in most areas. Winter rainfall (and sometimes snowfall) is associated with large storms that the westerlies steer from west to east. Most summer rainfall occurs during thunderstorms and occasional tropical storms (hurricanes).

Runways

Designator Length Width Surface Rops
5/23 1890 46 ASP Yes/Yes
14/32 2545 61 ASP Yes/Yes
Airport map: 
Aerial View: 

SKYbrary Partners:

Safety knowledge contributed by: